Time;durP1;ratioP1;P1;durP2;ratioP2;P2;SDS_P1;SDS_P2;PMS_P1;PMS_P2;Temp;Humidity;BMP_temperature;BMP_pressure;BME280_temperature;BME280_humidity;BME280_pressure;Samples;Min_cycle;Max_cycle;Signal;HPM_P1;HPM_P2
2021/11/17 02:28:03;;;;;;;0.90;0.90;;;5.10;99.90;;;;;;5026291;28;20213;-70
2021/11/17 02:30:48;;;;;;;4.35;1.80;;;5.10;99.90;;;;;;5028513;28;20225;-71
2021/11/17 02:33:41;;;;;;;0.80;0.80;;;5.10;99.90;;;;;;5013834;28;20205;-71
2021/11/17 02:36:37;;;;;;;1.52;1.42;;;5.10;99.90;;;;;;5026697;28;20202;-70
2021/11/17 02:39:32;;;;;;;2.15;1.60;;;5.10;99.90;;;;;;5027516;28;20209;-70
2021/11/17 02:42:13;;;;;;;0.52;0.52;;;5.10;99.90;;;;;;4995013;28;20684;-71
2021/11/17 02:44:54;;;;;;;0.68;0.68;;;5.10;99.90;;;;;;5043320;28;20225;-71
2021/11/17 02:47:48;;;;;;;0.88;0.88;;;5.10;99.90;;;;;;5066855;28;20201;-71
2021/11/17 02:50:13;;;;;;;1.00;1.00;;;5.10;99.90;;;;;;5066963;28;20250;-71
2021/11/17 02:53:08;;;;;;;1.95;1.13;;;5.10;99.90;;;;;;5066833;28;20204;-71
2021/11/17 02:55:55;;;;;;;2.03;1.88;;;5.20;99.90;;;;;;5048739;28;20221;-71
2021/11/17 02:58:49;;;;;;;1.20;1.20;;;5.20;99.90;;;;;;5066920;28;20655;-71
2021/11/17 03:01:20;;;;;;;1.48;1.38;;;5.20;99.90;;;;;;5050360;28;20232;-71
2021/11/17 03:04:00;;;;;;;0.88;0.88;;;5.20;99.90;;;;;;5061397;28;20318;-71
2021/11/17 03:06:26;;;;;;;0.60;0.60;;;5.20;99.90;;;;;;5066784;28;20211;-71
2021/11/17 03:09:13;;;;;;;1.38;1.27;;;5.20;99.90;;;;;;5056690;28;20209;-71
2021/11/17 03:11:42;;;;;;;0.80;0.80;;;5.20;99.90;;;;;;5051355;28;20664;-70
2021/11/17 03:14:17;;;;;;;0.80;0.80;;;5.20;99.90;;;;;;5049176;28;20201;-70
2021/11/17 03:17:06;;;;;;;0.80;0.80;;;5.20;99.90;;;;;;5063777;28;20227;-70
2021/11/17 03:19:41;;;;;;;1.00;1.00;;;5.20;99.90;;;;;;5051509;28;20214;-71
2021/11/17 03:22:30;;;;;;;1.52;1.42;;;5.20;99.90;;;;;;5064889;28;20245;-71
2021/11/17 03:25:04;;;;;;;1.13;1.10;;;5.20;99.90;;;;;;5050761;28;20208;-71
2021/11/17 03:27:56;;;;;;;1.58;1.42;;;5.20;99.90;;;;;;5066869;28;20192;-70
2021/11/17 03:30:41;;;;;;;0.70;0.70;;;5.20;99.90;;;;;;5033695;28;20579;-71
2021/11/17 03:33:41;;;;;;;0.88;0.88;;;5.20;99.90;;;;;;5035388;28;20218;-71
2021/11/17 03:36:29;;;;;;;1.05;1.05;;;5.20;99.90;;;;;;5050125;28;20205;-71
2021/11/17 03:39:16;;;;;;;0.70;0.70;;;5.20;99.90;;;;;;5065284;28;20196;-71
2021/11/17 03:41:45;;;;;;;0.90;0.85;;;5.20;99.90;;;;;;5067125;28;20610;-71
2021/11/17 03:44:42;;;;;;;0.52;0.52;;;5.20;99.90;;;;;;5066047;28;20228;-70
2021/11/17 03:47:40;;;;;;;0.70;0.70;;;5.30;99.90;;;;;;5066338;28;20337;-70
2021/11/17 03:50:31;;;;;;;0.70;0.70;;;5.30;99.90;;;;;;5065008;28;20197;-73
2021/11/17 03:53:43;;;;;;;1.00;1.00;;;5.30;99.90;;;;;;5065009;28;21131;-70
2021/11/17 03:56:08;;;;;;;0.90;0.90;;;5.30;99.90;;;;;;5030932;28;20270;-71
2021/11/17 03:58:37;;;;;;;1.13;1.13;;;5.30;99.90;;;;;;5067933;28;20358;-71
2021/11/17 04:01:24;;;;;;;1.25;0.93;;;5.30;99.90;;;;;;5061153;28;20284;-70
2021/11/17 04:03:58;;;;;;;0.90;0.90;;;5.30;99.90;;;;;;5041474;28;20225;-70
2021/11/17 04:06:46;;;;;;;0.75;0.75;;;5.30;99.90;;;;;;5049650;28;20202;-70
2021/11/17 04:09:25;;;;;;;1.65;1.55;;;5.30;99.90;;;;;;5042777;28;20201;-71
2021/11/17 04:11:56;;;;;;;2.28;1.48;;;5.40;99.90;;;;;;5068809;28;20216;-70
2021/11/17 04:14:47;;;;;;;0.70;0.70;;;5.40;99.90;;;;;;5069726;28;20284;-71
2021/11/17 04:17:15;;;;;;;1.45;1.35;;;5.40;99.90;;;;;;5071135;28;20619;-70
2021/11/17 04:20:06;;;;;;;1.40;1.30;;;5.40;99.90;;;;;;5062991;28;20713;-71
2021/11/17 04:22:43;;;;;;;2.25;1.10;;;5.40;99.90;;;;;;5069629;28;20196;-71
2021/11/17 04:25:35;;;;;;;0.88;0.88;;;5.40;99.90;;;;;;5070927;28;20212;-71
2021/11/17 04:28:06;;;;;;;1.58;1.35;;;5.40;99.90;;;;;;5069543;28;20211;-71
2021/11/17 04:30:55;;;;;;;0.80;0.80;;;5.30;99.90;;;;;;5048285;28;20198;-71
2021/11/17 04:33:57;;;;;;;2.28;1.15;;;5.40;99.90;;;;;;5063127;28;20216;-72
2021/11/17 04:37:03;;;;;;;1.83;1.48;;;5.40;99.90;;;;;;5071474;28;20212;-72
2021/11/17 04:39:39;;;;;;;0.88;0.88;;;5.40;99.90;;;;;;5036633;28;20676;-72
2021/11/17 04:42:07;;;;;;;1.38;1.30;;;5.40;99.90;;;;;;5068215;28;20189;-71
2021/11/17 04:44:39;;;;;;;0.70;0.70;;;5.40;99.90;;;;;;5070764;28;20225;-73
2021/11/17 04:47:25;;;;;;;1.20;1.20;;;5.40;99.90;;;;;;5037041;28;20194;-72
2021/11/17 04:50:09;;;;;;;0.73;0.73;;;5.40;99.90;;;;;;5039474;28;20273;-71
2021/11/17 04:52:43;;;;;;;1.00;1.00;;;5.50;99.90;;;;;;5070238;28;20193;-71
2021/11/17 04:55:36;;;;;;;0.50;0.50;;;5.50;99.90;;;;;;5069207;28;20295;-71
2021/11/17 04:58:38;;;;;;;1.25;1.15;;;5.40;99.90;;;;;;5070205;28;20224;-71
2021/11/17 05:01:12;;;;;;;1.02;1.02;;;5.40;99.90;;;;;;5069027;28;20196;-71
2021/11/17 05:03:53;;;;;;;1.23;1.13;;;5.50;99.90;;;;;;5063356;28;20209;-71
2021/11/17 05:06:33;;;;;;;1.33;1.08;;;5.50;99.90;;;;;;5045687;28;20212;-71
2021/11/17 05:09:02;;;;;;;0.70;0.70;;;5.50;99.90;;;;;;5067627;28;20254;-70
2021/11/17 05:11:44;;;;;;;0.60;0.60;;;5.50;99.90;;;;;;5069952;28;20207;-70
2021/11/17 05:14:19;;;;;;;0.80;0.80;;;5.50;99.90;;;;;;5067017;28;20200;-70
2021/11/17 05:17:06;;;;;;;1.00;1.00;;;5.50;99.90;;;;;;5069432;28;20206;-70
2021/11/17 05:20:12;;;;;;;0.60;0.60;;;5.50;99.90;;;;;;5066358;28;20250;-70
2021/11/17 05:22:43;;;;;;;1.70;1.60;;;5.50;99.90;;;;;;5069021;28;20204;-69
2021/11/17 05:25:31;;;;;;;1.85;1.65;;;5.50;99.90;;;;;;5069794;28;20244;-70
2021/11/17 05:28:00;;;;;;;0.70;0.70;;;5.50;99.90;;;;;;5070085;28;20221;-70
2021/11/17 05:30:51;;;;;;;0.70;0.70;;;5.50;99.90;;;;;;5067893;28;20229;-70
2021/11/17 05:33:29;;;;;;;1.38;1.27;;;5.50;99.90;;;;;;5034686;28;20684;-70
2021/11/17 05:36:16;;;;;;;0.70;0.70;;;5.50;99.90;;;;;;5054055;28;20197;-70
2021/11/17 05:38:54;;;;;;;0.95;0.95;;;5.50;99.90;;;;;;5064616;28;20236;-70
2021/11/17 05:41:23;;;;;;;0.90;0.90;;;5.50;99.90;;;;;;5057158;28;20216;-71
2021/11/17 05:44:04;;;;;;;0.73;0.73;;;5.50;99.90;;;;;;5069210;28;20205;-70
2021/11/17 05:46:49;;;;;;;0.60;0.60;;;5.50;99.90;;;;;;5050661;28;20272;-71
2021/11/17 05:49:43;;;;;;;0.70;0.70;;;5.50;99.90;;;;;;5051381;28;20201;-71
2021/11/17 05:52:32;;;;;;;0.50;0.50;;;5.50;99.90;;;;;;5053259;28;20280;-70
2021/11/17 05:55:02;;;;;;;0.55;0.55;;;5.50;99.90;;;;;;5062328;28;20224;-69
2021/11/17 05:57:40;;;;;;;0.80;0.80;;;5.50;99.90;;;;;;5066997;28;20197;-70
2021/11/17 06:00:17;;;;;;;1.08;1.02;;;5.50;99.90;;;;;;5059416;28;20216;-70
2021/11/17 06:02:50;;;;;;;0.70;0.70;;;5.50;99.90;;;;;;5052601;28;20231;-70
2021/11/17 06:05:15;;;;;;;1.17;1.13;;;5.40;99.90;;;;;;5062578;28;20236;-70
2021/11/17 06:07:40;;;;;;;0.60;0.60;;;5.30;99.90;;;;;;5044502;28;20270;-70
2021/11/17 06:10:21;;;;;;;1.00;1.00;;;5.30;99.90;;;;;;5057003;28;20259;-72
2021/11/17 06:12:50;;;;;;;1.65;1.40;;;5.30;99.90;;;;;;5057206;28;20255;-70
2021/11/17 06:15:18;;;;;;;3.88;1.42;;;5.30;99.90;;;;;;5051462;28;20690;-71
2021/11/17 06:17:46;;;;;;;0.90;0.90;;;5.30;99.90;;;;;;5063849;28;20201;-70
2021/11/17 06:20:15;;;;;;;1.35;1.25;;;5.30;99.90;;;;;;5057363;28;20307;-70
2021/11/17 06:22:44;;;;;;;0.60;0.60;;;5.30;99.90;;;;;;5058667;28;20221;-69
2021/11/17 06:25:11;;;;;;;0.82;0.82;;;5.40;99.90;;;;;;5060385;28;20674;-70
2021/11/17 06:27:40;;;;;;;1.02;1.02;;;5.50;99.90;;;;;;5067350;28;20240;-70
2021/11/17 06:30:09;;;;;;;0.80;0.80;;;5.60;99.90;;;;;;5066776;28;20239;-70
2021/11/17 06:32:34;;;;;;;0.70;0.70;;;5.60;99.90;;;;;;5064729;28;20236;-69
2021/11/17 06:35:03;;;;;;;1.08;1.08;;;5.60;99.90;;;;;;5068412;28;20232;-70
2021/11/17 06:37:29;;;;;;;1.35;1.25;;;5.60;99.90;;;;;;5067115;28;20188;-70
2021/11/17 06:39:58;;;;;;;1.85;1.75;;;5.60;99.90;;;;;;5066947;28;20294;-70
2021/11/17 06:42:32;;;;;;;1.52;1.42;;;5.60;99.90;;;;;;5067057;28;20197;-70
2021/11/17 06:44:58;;;;;;;1.17;1.08;;;5.60;99.90;;;;;;5067909;28;20274;-70
2021/11/17 06:47:24;;;;;;;1.38;1.27;;;5.70;99.90;;;;;;5066146;28;20197;-69
2021/11/17 06:49:54;;;;;;;2.05;1.10;;;5.70;99.90;;;;;;5052796;28;20322;-71
2021/11/17 06:52:21;;;;;;;1.85;1.45;;;5.70;99.90;;;;;;5068040;28;20581;-71
2021/11/17 06:54:47;;;;;;;0.63;0.63;;;5.70;99.90;;;;;;5066898;28;20681;-71
2021/11/17 06:57:14;;;;;;;1.27;1.17;;;5.70;99.90;;;;;;5054991;28;20206;-71
2021/11/17 06:59:39;;;;;;;1.60;0.82;;;5.70;99.90;;;;;;5069351;28;20258;-71
2021/11/17 07:02:05;;;;;;;1.65;1.55;;;5.70;99.90;;;;;;5067732;28;20609;-74
2021/11/17 07:04:37;;;;;;;5.07;2.00;;;5.70;99.90;;;;;;5066626;28;20709;-73
2021/11/17 07:07:05;;;;;;;1.38;1.27;;;5.70;99.90;;;;;;5068186;28;20276;-71
2021/11/17 07:09:31;;;;;;;0.88;0.88;;;5.80;99.90;;;;;;5067494;28;20644;-71
2021/11/17 07:11:57;;;;;;;1.75;1.65;;;5.70;99.90;;;;;;5067738;28;20274;-70
2021/11/17 07:14:23;;;;;;;0.77;0.77;;;5.70;99.90;;;;;;5066655;28;20208;-70
2021/11/17 07:16:50;;;;;;;1.00;1.00;;;5.80;99.90;;;;;;5065205;28;20606;-70
2021/11/17 07:19:16;;;;;;;0.98;0.98;;;5.80;99.90;;;;;;5067574;28;20208;-70
2021/11/17 07:21:43;;;;;;;1.25;1.15;;;5.80;99.90;;;;;;5056624;28;20325;-70
2021/11/17 07:24:10;;;;;;;1.88;1.58;;;5.70;99.90;;;;;;5050225;28;20209;-70
2021/11/17 07:26:36;;;;;;;0.80;0.80;;;5.70;99.90;;;;;;5058813;28;20232;-70
2021/11/17 07:29:03;;;;;;;0.80;0.80;;;5.80;99.90;;;;;;5057086;28;20743;-70
2021/11/17 07:31:29;;;;;;;0.80;0.80;;;5.80;99.90;;;;;;5060187;28;20212;-70
2021/11/17 07:33:54;;;;;;;0.98;0.98;;;5.80;99.90;;;;;;5067500;28;20275;-70
2021/11/17 07:36:21;;;;;;;2.88;2.28;;;5.70;99.90;;;;;;5064902;28;20231;-70
2021/11/17 07:38:47;;;;;;;1.02;1.02;;;5.80;99.90;;;;;;5067524;28;20659;-70
2021/11/17 07:41:13;;;;;;;0.88;0.88;;;5.80;99.90;;;;;;5063703;28;20232;-69
2021/11/17 07:43:39;;;;;;;2.47;1.45;;;5.80;99.90;;;;;;5064485;28;20317;-72
2021/11/17 07:46:05;;;;;;;1.20;1.10;;;5.80;99.90;;;;;;5066486;28;20206;-71
2021/11/17 07:48:31;;;;;;;1.00;1.00;;;5.90;99.90;;;;;;5064774;28;20492;-70
2021/11/17 07:50:59;;;;;;;0.90;0.90;;;5.80;99.90;;;;;;5066071;28;20197;-71
2021/11/17 07:53:27;;;;;;;1.10;1.00;;;5.90;99.90;;;;;;5055693;28;20220;-71
2021/11/17 07:55:56;;;;;;;1.17;1.02;;;5.90;99.90;;;;;;5067493;28;20565;-71
2021/11/17 07:58:24;;;;;;;6.32;1.48;;;5.90;99.90;;;;;;5066154;28;20197;-71
2021/11/17 08:00:53;;;;;;;1.15;1.15;;;5.90;99.90;;;;;;5066731;28;20204;-71
2021/11/17 08:03:21;;;;;;;3.05;1.42;;;5.90;99.90;;;;;;5068621;28;20211;-72
2021/11/17 08:05:50;;;;;;;0.65;0.65;;;5.90;99.90;;;;;;5066727;28;20213;-71
2021/11/17 08:08:16;;;;;;;0.70;0.70;;;5.90;99.90;;;;;;5066151;28;20201;-71
2021/11/17 08:10:43;;;;;;;1.30;1.20;;;5.90;99.90;;;;;;5065520;28;20280;-71
2021/11/17 08:13:08;;;;;;;1.13;1.13;;;5.90;99.90;;;;;;5064595;28;20232;-70
2021/11/17 08:15:35;;;;;;;1.10;1.10;;;5.90;99.90;;;;;;5063399;28;20232;-70
2021/11/17 08:18:01;;;;;;;0.90;0.90;;;5.90;99.90;;;;;;5055146;28;20233;-70
2021/11/17 08:20:27;;;;;;;1.17;1.13;;;5.90;99.90;;;;;;5058786;28;20213;-70
2021/11/17 08:22:55;;;;;;;1.33;1.23;;;5.90;99.90;;;;;;5066820;28;20205;-70
2021/11/17 08:25:24;;;;;;;0.90;0.90;;;5.80;99.90;;;;;;5066617;28;20289;-71
2021/11/17 08:27:50;;;;;;;1.38;1.27;;;5.80;99.90;;;;;;5065808;28;20193;-70
2021/11/17 08:30:18;;;;;;;1.05;1.05;;;5.80;99.90;;;;;;5066935;28;20208;-69
2021/11/17 08:32:44;;;;;;;1.10;1.10;;;5.80;99.90;;;;;;5065754;28;20275;-74
2021/11/17 08:35:14;;;;;;;0.77;0.77;;;5.80;99.90;;;;;;5054636;28;20706;-71
2021/11/17 08:37:40;;;;;;;3.50;1.75;;;5.80;99.90;;;;;;5055256;28;20696;-70
2021/11/17 08:40:10;;;;;;;1.45;1.35;;;5.80;99.90;;;;;;5053738;28;20200;-73
2021/11/17 08:42:36;;;;;;;0.98;0.98;;;5.70;99.90;;;;;;5066723;28;20196;-72
2021/11/17 08:45:03;;;;;;;0.80;0.80;;;5.70;99.90;;;;;;5066643;28;20265;-71
2021/11/17 08:47:29;;;;;;;0.90;0.90;;;5.80;99.90;;;;;;5065611;28;20194;-71
2021/11/17 08:49:54;;;;;;;1.00;1.00;;;5.80;99.90;;;;;;5054195;28;20700;-71
2021/11/17 08:52:24;;;;;;;4.10;1.20;;;5.70;99.90;;;;;;5067010;28;20197;-72
2021/11/17 08:54:50;;;;;;;1.63;1.33;;;5.80;99.90;;;;;;5036764;28;20244;-71
2021/11/17 08:57:18;;;;;;;1.08;0.90;;;5.80;99.90;;;;;;5070351;28;20256;-73
2021/11/17 08:59:46;;;;;;;0.90;0.90;;;5.80;99.90;;;;;;5071682;28;20209;-71
2021/11/17 09:02:13;;;;;;;2.15;1.52;;;5.80;99.90;;;;;;5069575;28;20568;-71
2021/11/17 09:04:39;;;;;;;1.60;1.50;;;5.80;99.90;;;;;;5069419;28;20212;-72
2021/11/17 09:07:05;;;;;;;27.85;1.63;;;5.80;99.90;;;;;;5070032;28;20216;-71
2021/11/17 09:09:31;;;;;;;0.90;0.90;;;5.80;99.90;;;;;;5068919;28;20209;-70
2021/11/17 09:11:57;;;;;;;1.00;1.00;;;5.70;99.90;;;;;;5067559;28;20205;-70
2021/11/17 09:14:22;;;;;;;0.75;0.75;;;5.70;99.90;;;;;;5068820;28;20663;-71
2021/11/17 09:16:49;;;;;;;0.60;0.60;;;5.70;99.90;;;;;;5069007;28;20251;-75
2021/11/17 09:19:16;;;;;;;0.70;0.70;;;5.70;99.90;;;;;;5060187;28;20201;-72
2021/11/17 09:21:45;;;;;;;1.10;1.10;;;5.70;99.90;;;;;;5063288;28;20197;-72
2021/11/17 09:24:13;;;;;;;1.17;1.00;;;5.80;99.90;;;;;;5067438;28;20247;-73
2021/11/17 09:26:40;;;;;;;0.70;0.70;;;5.80;99.90;;;;;;5068654;28;21520;-72
2021/11/17 09:29:06;;;;;;;1.02;1.02;;;5.80;99.90;;;;;;5068654;28;20209;-72
2021/11/17 09:31:34;;;;;;;0.80;0.80;;;5.80;99.90;;;;;;5069603;28;20575;-73
2021/11/17 09:34:00;;;;;;;0.70;0.70;;;5.80;99.90;;;;;;5069826;28;20682;-70
2021/11/17 09:36:28;;;;;;;3.13;1.20;;;5.80;99.90;;;;;;5069654;28;20200;-73
2021/11/17 09:38:55;;;;;;;0.70;0.70;;;5.80;99.90;;;;;;5069588;28;20212;-70
2021/11/17 09:41:48;;;;;;;1.50;1.40;;;5.70;99.90;;;;;;5067757;28;20679;-71
2021/11/17 09:44:25;;;;;;;0.90;0.90;;;5.80;99.90;;;;;;5055756;28;20719;-71
2021/11/17 09:46:52;;;;;;;0.80;0.80;;;5.70;99.90;;;;;;5057727;28;20197;-70
2021/11/17 09:49:20;;;;;;;1.33;1.23;;;5.70;99.90;;;;;;5069396;28;20189;-71
2021/11/17 09:51:51;;;;;;;0.80;0.80;;;5.70;99.90;;;;;;5068299;28;20204;-72
2021/11/17 09:54:40;;;;;;;0.80;0.80;;;5.70;99.90;;;;;;5069339;28;20207;-70
2021/11/17 09:57:14;;;;;;;0.95;0.95;;;5.70;99.90;;;;;;5069135;28;20201;-71
2021/11/17 09:59:46;;;;;;;1.52;1.42;;;5.70;99.90;;;;;;5065803;28;20200;-72
2021/11/17 10:02:40;;;;;;;0.95;0.90;;;5.60;99.90;;;;;;5068241;28;20197;-71
2021/11/17 10:06:02;;;;;;;1.35;1.25;;;5.70;99.90;;;;;;5068984;28;20220;-71
2021/11/17 10:13:26;;;;;;;0.90;0.85;;;5.70;99.90;;;;;;5065639;28;20265;-71
2021/11/17 10:15:54;;;;;;;0.70;0.70;;;5.70;99.90;;;;;;5069010;28;20208;-72
2021/11/17 10:18:54;;;;;;;1.70;1.60;;;5.70;99.90;;;;;;5060268;28;20197;-71
2021/11/17 10:21:22;;;;;;;0.88;0.82;;;5.70;99.90;;;;;;5052303;28;20213;-71
2021/11/17 10:24:03;;;;;;;3.90;2.17;;;5.70;99.90;;;;;;5068053;28;20709;-71
2021/11/17 10:26:29;;;;;;;0.77;0.77;;;5.70;99.90;;;;;;5050709;28;20209;-71
2021/11/17 10:29:01;;;;;;;0.80;0.80;;;5.70;99.90;;;;;;5070007;28;20331;-72
2021/11/17 10:31:46;;;;;;;0.75;0.75;;;5.70;99.90;;;;;;5067118;28;20287;-71
2021/11/17 10:34:15;;;;;;;1.00;1.00;;;5.70;99.90;;;;;;5069135;28;20698;-70
2021/11/17 10:37:08;;;;;;;0.73;0.73;;;5.80;99.90;;;;;;5068770;28;20262;-73
2021/11/17 10:39:39;;;;;;;1.25;1.00;;;5.70;99.90;;;;;;5069173;28;20745;-71
2021/11/17 10:42:30;;;;;;;0.70;0.70;;;5.70;99.90;;;;;;5051151;28;20255;-73
2021/11/17 10:45:10;;;;;;;0.70;0.70;;;5.70;99.90;;;;;;5063569;28;20240;-72
2021/11/17 10:47:46;;;;;;;1.27;1.17;;;5.80;99.90;;;;;;5065571;28;20625;-72
2021/11/17 10:50:33;;;;;;;0.80;0.80;;;5.80;99.90;;;;;;5060434;28;20202;-72
2021/11/17 10:53:24;;;;;;;1.00;1.00;;;5.80;99.90;;;;;;5046771;28;20201;-72
2021/11/17 10:55:53;;;;;;;0.90;0.90;;;5.80;99.90;;;;;;5059233;28;20202;-72
2021/11/17 10:58:32;;;;;;;1.65;1.55;;;5.80;99.90;;;;;;5051657;28;20205;-72
2021/11/17 11:01:21;;;;;;;1.55;1.45;;;5.80;99.90;;;;;;5060093;28;20219;-73
2021/11/17 11:03:55;;;;;;;0.80;0.80;;;5.80;99.90;;;;;;5056305;28;20205;-72
2021/11/17 11:06:44;;;;;;;0.88;0.88;;;5.80;99.90;;;;;;5063208;28;20726;-72
2021/11/17 11:09:27;;;;;;;1.63;1.52;;;5.80;99.90;;;;;;5037077;28;20695;-72
2021/11/17 11:11:55;;;;;;;1.00;1.00;;;5.80;99.90;;;;;;5056107;28;20205;-72
2021/11/17 11:14:36;;;;;;;0.73;0.73;;;5.80;99.90;;;;;;5051260;28;20577;-72
2021/11/17 11:17:08;;;;;;;0.88;0.88;;;5.90;99.90;;;;;;5068142;28;20201;-69
2021/11/17 11:19:34;;;;;;;0.90;0.90;;;5.80;99.90;;;;;;5048864;28;20255;-69
2021/11/17 11:22:08;;;;;;;1.25;1.15;;;5.90;99.90;;;;;;5068650;28;20216;-69
2021/11/17 11:24:40;;;;;;;0.80;0.80;;;5.90;99.90;;;;;;5050243;28;20205;-69
2021/11/17 11:27:18;;;;;;;0.80;0.80;;;5.90;99.90;;;;;;5067053;28;20382;-70
2021/11/17 11:29:48;;;;;;;0.80;0.80;;;5.80;99.90;;;;;;5034413;28;20205;-69
2021/11/17 11:32:17;;;;;;;1.13;1.13;;;5.80;99.90;;;;;;5066750;28;20258;-70
2021/11/17 11:34:45;;;;;;;0.65;0.65;;;5.90;99.90;;;;;;5033271;28;20194;-69
2021/11/17 11:37:23;;;;;;;0.73;0.73;;;5.90;99.90;;;;;;5064921;28;20194;-69
2021/11/17 11:39:58;;;;;;;0.70;0.70;;;5.90;99.90;;;;;;5035325;28;20233;-70
2021/11/17 11:42:49;;;;;;;1.30;1.23;;;5.90;99.90;;;;;;5065963;28;20205;-71
2021/11/17 11:45:26;;;;;;;0.80;0.80;;;5.90;99.90;;;;;;5053506;28;20299;-70
2021/11/17 11:48:13;;;;;;;9.60;1.73;;;5.90;99.90;;;;;;5063461;28;20213;-70
2021/11/17 11:50:39;;;;;;;1.23;1.13;;;5.90;99.90;;;;;;5054524;28;20240;-70
2021/11/17 11:53:11;;;;;;;0.68;0.68;;;5.90;99.90;;;;;;5061519;28;20283;-69
2021/11/17 11:55:52;;;;;;;0.70;0.70;;;6.00;99.90;;;;;;5046663;28;20208;-70
2021/11/17 11:58:21;;;;;;;0.70;0.70;;;6.00;99.90;;;;;;5051020;28;20209;-71
2021/11/17 12:01:17;;;;;;;1.30;1.20;;;6.00;99.90;;;;;;5050880;28;20225;-69
2021/11/17 12:04:06;;;;;;;0.80;0.80;;;6.00;99.90;;;;;;5060692;28;20204;-69
2021/11/17 12:06:56;;;;;;;0.70;0.70;;;6.00;99.90;;;;;;5064729;28;20704;-68
2021/11/17 12:09:33;;;;;;;0.80;0.80;;;6.00;99.90;;;;;;5049754;28;20392;-69
2021/11/17 12:12:18;;;;;;;0.70;0.70;;;6.10;99.90;;;;;;5066612;28;20303;-69
2021/11/17 12:14:51;;;;;;;7.32;1.10;;;6.10;99.90;;;;;;5031597;28;20668;-69
2021/11/17 12:17:26;;;;;;;0.63;0.63;;;6.10;99.90;;;;;;5032965;28;20210;-69
2021/11/17 12:19:56;;;;;;;0.80;0.80;;;6.00;99.90;;;;;;5050291;28;20229;-69
2021/11/17 12:22:57;;;;;;;0.75;0.75;;;6.00;99.90;;;;;;5066968;28;20273;-69
2021/11/17 12:25:33;;;;;;;0.68;0.68;;;6.00;99.90;;;;;;5046093;28;20271;-68
2021/11/17 12:28:16;;;;;;;0.70;0.70;;;6.00;99.90;;;;;;5030562;28;20220;-69
2021/11/17 12:31:02;;;;;;;1.77;1.52;;;6.10;99.90;;;;;;5043416;28;20201;-70
2021/11/17 12:33:42;;;;;;;0.82;0.82;;;6.10;99.90;;;;;;5036574;28;20268;-70
2021/11/17 12:36:27;;;;;;;2.25;1.67;;;6.10;99.90;;;;;;5041307;28;20223;-70
2021/11/17 12:38:54;;;;;;;0.85;0.85;;;6.10;99.90;;;;;;5031915;28;20226;-70
2021/11/17 12:41:30;;;;;;;0.70;0.70;;;6.10;99.90;;;;;;5048474;28;20702;-70
2021/11/17 12:44:11;;;;;;;0.90;0.90;;;6.20;99.90;;;;;;5048282;28;20333;-71
2021/11/17 12:47:14;;;;;;;0.80;0.80;;;6.10;99.90;;;;;;5048296;28;20718;-69
2021/11/17 12:49:51;;;;;;;0.60;0.60;;;6.20;99.90;;;;;;5033889;28;20649;-70
2021/11/17 12:52:39;;;;;;;0.63;0.63;;;6.20;99.90;;;;;;5034405;28;20210;-69
2021/11/17 12:55:18;;;;;;;0.80;0.70;;;6.20;99.90;;;;;;5032683;28;20818;-70
2021/11/17 12:58:07;;;;;;;0.95;0.93;;;6.20;99.90;;;;;;5049217;28;20733;-71
2021/11/17 13:00:41;;;;;;;0.80;0.80;;;6.20;99.90;;;;;;5071190;28;20224;-70
2021/11/17 13:03:09;;;;;;;0.80;0.80;;;6.20;99.90;;;;;;5070771;28;20197;-69
2021/11/17 13:05:42;;;;;;;0.68;0.68;;;6.20;99.90;;;;;;5068483;28;20281;-69
2021/11/17 13:08:12;;;;;;;0.77;0.77;;;6.20;99.90;;;;;;5053338;28;20204;-70
2021/11/17 13:10:48;;;;;;;0.80;0.80;;;6.30;99.90;;;;;;5070752;28;20201;-71
2021/11/17 13:13:26;;;;;;;0.73;0.73;;;6.30;99.90;;;;;;5071374;28;20657;-69
2021/11/17 13:15:59;;;;;;;1.00;1.00;;;6.30;99.90;;;;;;5070554;28;20212;-70
2021/11/17 13:18:33;;;;;;;2.28;1.58;;;6.30;99.90;;;;;;5066257;28;20283;-68
2021/11/17 13:21:20;;;;;;;1.00;1.00;;;6.30;99.90;;;;;;5069266;28;20609;-69
2021/11/17 13:24:02;;;;;;;1.05;0.93;;;6.40;99.90;;;;;;5034818;28;20205;-69
2021/11/17 13:26:53;;;;;;;0.80;0.80;;;6.40;99.90;;;;;;5037092;28;20316;-68
2021/11/17 13:29:28;;;;;;;0.70;0.70;;;6.40;99.90;;;;;;5064038;28;20698;-69
2021/11/17 13:32:14;;;;;;;0.80;0.80;;;6.40;99.90;;;;;;5055396;28;20562;-69
2021/11/17 13:34:58;;;;;;;0.73;0.73;;;6.50;99.90;;;;;;5068357;28;20209;-69
2021/11/17 13:37:37;;;;;;;1.15;1.15;;;6.50;99.90;;;;;;5068343;28;20350;-68
2021/11/17 13:40:22;;;;;;;3.08;1.70;;;6.50;99.90;;;;;;5069606;28;20275;-69
2021/11/17 13:42:48;;;;;;;0.70;0.70;;;6.50;99.90;;;;;;5068457;28;20535;-68
2021/11/17 13:45:22;;;;;;;0.65;0.65;;;6.50;99.90;;;;;;5069200;28;20261;-69
2021/11/17 13:47:50;;;;;;;0.70;0.70;;;6.60;99.90;;;;;;5069411;28;20203;-69
2021/11/17 13:50:17;;;;;;;0.90;0.90;;;6.60;99.90;;;;;;5067512;28;20683;-68
2021/11/17 13:52:45;;;;;;;0.90;0.88;;;6.60;99.90;;;;;;5063721;28;20608;-69
2021/11/17 13:55:17;;;;;;;0.60;0.60;;;6.60;99.90;;;;;;5068329;28;20714;-69
2021/11/17 13:57:43;;;;;;;0.80;0.80;;;6.70;99.90;;;;;;5066597;28;20197;-68
2021/11/17 14:00:11;;;;;;;0.60;0.60;;;6.70;99.90;;;;;;5068206;28;20196;-68
2021/11/17 14:02:38;;;;;;;1.05;1.05;;;6.70;99.90;;;;;;5068872;28;20288;-68
2021/11/17 14:05:05;;;;;;;1.33;1.05;;;6.70;99.90;;;;;;5069006;28;20684;-70
2021/11/17 14:07:32;;;;;;;1.83;1.70;;;6.70;99.90;;;;;;5068954;28;20730;-73
2021/11/17 14:09:59;;;;;;;0.90;0.90;;;6.80;99.90;;;;;;5067529;28;20236;-72
2021/11/17 14:12:25;;;;;;;0.70;0.70;;;6.80;99.90;;;;;;5069338;28;20193;-70
2021/11/17 14:14:51;;;;;;;0.80;0.80;;;6.80;99.90;;;;;;5070207;28;20526;-70
2021/11/17 14:17:16;;;;;;;0.70;0.70;;;6.80;99.90;;;;;;5069484;28;20208;-68
2021/11/17 14:19:43;;;;;;;0.68;0.68;;;6.80;99.90;;;;;;5050445;28;20205;-69
2021/11/17 14:22:09;;;;;;;0.80;0.80;;;6.90;99.90;;;;;;5067795;28;20291;-68
2021/11/17 14:24:35;;;;;;;0.77;0.77;;;6.90;99.90;;;;;;5068513;28;20342;-68
2021/11/17 14:27:04;;;;;;;0.70;0.70;;;6.90;99.90;;;;;;5068721;28;20203;-68
2021/11/17 14:29:35;;;;;;;0.77;0.77;;;7.00;99.90;;;;;;5065994;28;20667;-68
2021/11/17 14:32:21;;;;;;;1.55;1.10;;;7.00;99.90;;;;;;5068518;28;20211;-68
2021/11/17 14:34:47;;;;;;;0.73;0.73;;;7.00;99.90;;;;;;5053916;28;20740;-68
2021/11/17 14:37:12;;;;;;;0.70;0.70;;;7.00;99.90;;;;;;5063293;28;20323;-68
2021/11/17 14:39:42;;;;;;;0.90;0.90;;;7.00;99.90;;;;;;5068269;28;20242;-69
2021/11/17 14:42:09;;;;;;;0.77;0.77;;;7.00;99.90;;;;;;5065901;28;20208;-68
2021/11/17 14:44:35;;;;;;;0.60;0.60;;;7.00;99.90;;;;;;5066786;28;20247;-68
2021/11/17 14:47:01;;;;;;;2.97;1.42;;;7.10;99.90;;;;;;5066359;28;20210;-68
2021/11/17 14:49:31;;;;;;;0.90;0.90;;;7.10;99.90;;;;;;5058058;28;20574;-67
2021/11/17 14:51:58;;;;;;;0.75;0.75;;;7.10;99.90;;;;;;5058602;28;20262;-68
2021/11/17 14:54:24;;;;;;;0.80;0.80;;;7.10;99.90;;;;;;5066946;28;20201;-68
2021/11/17 14:56:50;;;;;;;0.80;0.80;;;7.10;99.90;;;;;;5067918;28;20246;-68
2021/11/17 14:59:16;;;;;;;0.60;0.60;;;7.10;99.90;;;;;;5067986;28;20213;-67
2021/11/17 15:01:43;;;;;;;0.50;0.50;;;7.10;99.90;;;;;;5067650;28;20561;-69
2021/11/17 15:04:10;;;;;;;0.70;0.70;;;7.20;99.90;;;;;;5067004;28;20216;-67
2021/11/17 15:06:39;;;;;;;0.70;0.70;;;7.10;99.90;;;;;;5065308;28;20679;-68
2021/11/17 15:09:07;;;;;;;0.65;0.65;;;7.10;99.90;;;;;;5066995;28;20197;-68
2021/11/17 15:11:50;;;;;;;0.75;0.75;;;7.10;99.90;;;;;;5065255;28;20209;-68
2021/11/17 15:14:18;;;;;;;1.02;1.02;;;7.10;99.90;;;;;;5067950;28;20220;-68
2021/11/17 15:16:44;;;;;;;0.75;0.75;;;7.10;99.90;;;;;;5064741;28;20292;-69
2021/11/17 15:19:10;;;;;;;0.60;0.60;;;7.10;99.90;;;;;;5053360;28;20205;-69
2021/11/17 15:21:36;;;;;;;0.88;0.88;;;7.10;99.90;;;;;;5066251;28;20248;-68
2021/11/17 15:24:02;;;;;;;0.70;0.70;;;7.00;99.90;;;;;;5034952;28;20240;-68
2021/11/17 15:26:29;;;;;;;0.65;0.65;;;7.10;99.90;;;;;;5033826;28;20221;-68
2021/11/17 15:28:57;;;;;;;0.75;0.75;;;7.00;99.90;;;;;;5069351;28;20672;-69
2021/11/17 15:31:26;;;;;;;0.70;0.70;;;7.00;99.90;;;;;;5068407;28;20204;-68
2021/11/17 15:33:52;;;;;;;0.63;0.63;;;7.00;99.90;;;;;;5067974;28;20201;-68
2021/11/17 15:36:19;;;;;;;0.70;0.70;;;7.10;99.90;;;;;;5067723;28;20201;-69
2021/11/17 15:38:47;;;;;;;0.60;0.60;;;7.10;99.90;;;;;;5066358;28;20317;-69
2021/11/17 15:41:16;;;;;;;0.60;0.60;;;7.10;99.90;;;;;;5067506;28;20219;-68
2021/11/17 15:43:44;;;;;;;0.70;0.70;;;7.10;99.90;;;;;;5066011;28;20215;-68
2021/11/17 15:46:10;;;;;;;0.60;0.60;;;7.00;99.90;;;;;;5067233;28;20544;-69
2021/11/17 15:48:36;;;;;;;0.60;0.60;;;7.00;99.90;;;;;;5067393;28;20235;-68
2021/11/17 15:51:07;;;;;;;0.60;0.60;;;7.10;99.90;;;;;;5067349;28;20212;-68
2021/11/17 15:53:33;;;;;;;0.70;0.70;;;7.10;99.90;;;;;;5067263;28;20214;-68
2021/11/17 15:55:59;;;;;;;0.70;0.70;;;7.10;99.90;;;;;;5067220;28;20208;-68
2021/11/17 15:58:25;;;;;;;0.60;0.60;;;7.10;99.90;;;;;;5065548;28;20215;-72
2021/11/17 16:00:51;;;;;;;0.60;0.60;;;7.10;99.90;;;;;;5067674;28;20276;-68
2021/11/17 16:03:17;;;;;;;0.68;0.68;;;7.10;99.90;;;;;;5071595;28;20296;-69
2021/11/17 16:05:45;;;;;;;1.00;1.00;;;7.10;99.90;;;;;;5070081;28;20232;-68
2021/11/17 16:08:12;;;;;;;0.75;0.75;;;7.10;99.90;;;;;;5070361;28;20200;-67